sensor_id;sensor_type;location;lat;lon;timestamp;P1;durP1;ratioP1;P2;durP2;ratioP2
29570;SDS011;16814;52.118;11.436;2022-10-22T00:01:21;20.13;;;11.30;;
29570;SDS011;16814;52.118;11.436;2022-10-22T00:03:48;14.10;;;9.18;;
29570;SDS011;16814;52.118;11.436;2022-10-22T00:06:14;13.50;;;8.30;;
29570;SDS011;16814;52.118;11.436;2022-10-22T00:08:39;14.10;;;8.27;;
29570;SDS011;16814;52.118;11.436;2022-10-22T00:11:12;13.17;;;9.07;;
29570;SDS011;16814;52.118;11.436;2022-10-22T00:13:39;15.38;;;9.90;;
29570;SDS011;16814;52.118;11.436;2022-10-22T00:16:05;13.30;;;10.23;;
29570;SDS011;16814;52.118;11.436;2022-10-22T00:18:31;15.10;;;9.65;;
29570;SDS011;16814;52.118;11.436;2022-10-22T00:20:57;17.23;;;9.97;;
29570;SDS011;16814;52.118;11.436;2022-10-22T00:23:22;12.50;;;9.60;;
29570;SDS011;16814;52.118;11.436;2022-10-22T00:25:48;15.50;;;9.67;;
29570;SDS011;16814;52.118;11.436;2022-10-22T00:28:13;14.70;;;10.70;;
29570;SDS011;16814;52.118;11.436;2022-10-22T00:30:39;17.48;;;11.13;;
29570;SDS011;16814;52.118;11.436;2022-10-22T00:33:05;16.87;;;10.87;;
29570;SDS011;16814;52.118;11.436;2022-10-22T00:35:31;19.00;;;10.55;;
29570;SDS011;16814;52.118;11.436;2022-10-22T00:37:56;16.08;;;10.85;;
29570;SDS011;16814;52.118;11.436;2022-10-22T00:40:22;15.23;;;10.83;;
29570;SDS011;16814;52.118;11.436;2022-10-22T00:42:47;14.23;;;9.43;;
29570;SDS011;16814;52.118;11.436;2022-10-22T00:45:15;12.65;;;8.68;;
29570;SDS011;16814;52.118;11.436;2022-10-22T00:47:50;16.20;;;9.38;;
29570;SDS011;16814;52.118;11.436;2022-10-22T00:50:21;13.20;;;8.82;;
29570;SDS011;16814;52.118;11.436;2022-10-22T00:52:52;13.77;;;9.05;;
29570;SDS011;16814;52.118;11.436;2022-10-22T00:55:19;16.38;;;10.65;;
29570;SDS011;16814;52.118;11.436;2022-10-22T00:57:45;15.40;;;10.25;;
29570;SDS011;16814;52.118;11.436;2022-10-22T01:00:12;17.10;;;9.77;;
29570;SDS011;16814;52.118;11.436;2022-10-22T01:02:38;15.30;;;9.48;;
29570;SDS011;16814;52.118;11.436;2022-10-22T01:05:03;11.63;;;9.03;;
29570;SDS011;16814;52.118;11.436;2022-10-22T01:07:29;16.70;;;9.85;;
29570;SDS011;16814;52.118;11.436;2022-10-22T01:12:53;14.80;;;9.65;;
29570;SDS011;16814;52.118;11.436;2022-10-22T01:21:29;14.10;;;8.07;;
29570;SDS011;16814;52.118;11.436;2022-10-22T01:24:07;10.90;;;8.40;;
29570;SDS011;16814;52.118;11.436;2022-10-22T01:27:01;11.88;;;8.48;;
29570;SDS011;16814;52.118;11.436;2022-10-22T01:29:47;17.80;;;8.40;;
29570;SDS011;16814;52.118;11.436;2022-10-22T01:32:20;15.13;;;9.30;;
29570;SDS011;16814;52.118;11.436;2022-10-22T01:34:55;10.95;;;8.27;;
29570;SDS011;16814;52.118;11.436;2022-10-22T01:37:24;10.82;;;8.43;;
29570;SDS011;16814;52.118;11.436;2022-10-22T01:39:54;12.13;;;9.05;;
29570;SDS011;16814;52.118;11.436;2022-10-22T01:42:23;14.70;;;9.33;;
29570;SDS011;16814;52.118;11.436;2022-10-22T01:44:49;12.18;;;9.15;;
29570;SDS011;16814;52.118;11.436;2022-10-22T01:47:16;14.70;;;9.63;;
29570;SDS011;16814;52.118;11.436;2022-10-22T01:50:07;16.13;;;9.53;;
29570;SDS011;16814;52.118;11.436;2022-10-22T02:00:59;13.80;;;8.90;;
29570;SDS011;16814;52.118;11.436;2022-10-22T02:03:38;15.10;;;8.75;;
29570;SDS011;16814;52.118;11.436;2022-10-22T02:06:09;12.98;;;8.27;;
29570;SDS011;16814;52.118;11.436;2022-10-22T02:08:40;10.05;;;7.70;;
29570;SDS011;16814;52.118;11.436;2022-10-22T02:11:07;11.70;;;8.10;;
29570;SDS011;16814;52.118;11.436;2022-10-22T02:13:34;10.37;;;7.90;;
29570;SDS011;16814;52.118;11.436;2022-10-22T02:16:15;14.85;;;8.00;;
29570;SDS011;16814;52.118;11.436;2022-10-22T02:18:45;12.20;;;7.73;;
29570;SDS011;16814;52.118;11.436;2022-10-22T02:21:15;11.23;;;7.75;;
29570;SDS011;16814;52.118;11.436;2022-10-22T02:23:40;11.95;;;8.55;;
29570;SDS011;16814;52.118;11.436;2022-10-22T02:26:10;12.37;;;8.43;;
29570;SDS011;16814;52.118;11.436;2022-10-22T02:28:46;14.45;;;8.95;;
29570;SDS011;16814;52.118;11.436;2022-10-22T02:31:27;13.02;;;8.05;;
29570;SDS011;16814;52.118;11.436;2022-10-22T02:33:57;16.30;;;8.70;;
29570;SDS011;16814;52.118;11.436;2022-10-22T02:36:28;12.70;;;8.50;;
29570;SDS011;16814;52.118;11.436;2022-10-22T02:38:55;15.98;;;8.82;;
29570;SDS011;16814;52.118;11.436;2022-10-22T02:41:20;13.40;;;8.63;;
29570;SDS011;16814;52.118;11.436;2022-10-22T02:43:52;12.68;;;8.85;;
29570;SDS011;16814;52.118;11.436;2022-10-22T02:46:18;14.38;;;9.18;;
29570;SDS011;16814;52.118;11.436;2022-10-22T02:48:44;11.20;;;8.10;;
29570;SDS011;16814;52.118;11.436;2022-10-22T02:51:09;14.60;;;8.75;;
29570;SDS011;16814;52.118;11.436;2022-10-22T02:53:35;15.60;;;9.10;;
29570;SDS011;16814;52.118;11.436;2022-10-22T02:56:00;16.43;;;8.63;;
29570;SDS011;16814;52.118;11.436;2022-10-22T02:58:26;14.73;;;9.30;;
29570;SDS011;16814;52.118;11.436;2022-10-22T03:00:51;15.00;;;9.15;;
29570;SDS011;16814;52.118;11.436;2022-10-22T03:03:17;15.13;;;9.60;;
29570;SDS011;16814;52.118;11.436;2022-10-22T03:05:42;15.70;;;9.60;;
29570;SDS011;16814;52.118;11.436;2022-10-22T03:08:08;11.93;;;8.60;;
29570;SDS011;16814;52.118;11.436;2022-10-22T03:10:33;12.90;;;8.38;;
29570;SDS011;16814;52.118;11.436;2022-10-22T03:12:59;12.83;;;8.73;;
29570;SDS011;16814;52.118;11.436;2022-10-22T03:15:25;14.83;;;8.63;;
29570;SDS011;16814;52.118;11.436;2022-10-22T03:17:50;13.65;;;8.65;;
29570;SDS011;16814;52.118;11.436;2022-10-22T03:20:16;16.03;;;11.30;;
29570;SDS011;16814;52.118;11.436;2022-10-22T03:22:41;21.63;;;12.30;;
29570;SDS011;16814;52.118;11.436;2022-10-22T03:25:09;18.90;;;11.95;;
29570;SDS011;16814;52.118;11.436;2022-10-22T03:27:38;18.17;;;11.20;;
29570;SDS011;16814;52.118;11.436;2022-10-22T03:30:06;15.80;;;10.60;;
29570;SDS011;16814;52.118;11.436;2022-10-22T03:32:32;19.73;;;12.00;;
29570;SDS011;16814;52.118;11.436;2022-10-22T03:34:57;17.30;;;11.40;;
29570;SDS011;16814;52.118;11.436;2022-10-22T03:37:23;16.03;;;11.10;;
29570;SDS011;16814;52.118;11.436;2022-10-22T03:39:50;20.38;;;11.90;;
29570;SDS011;16814;52.118;11.436;2022-10-22T03:42:16;18.05;;;10.75;;
29570;SDS011;16814;52.118;11.436;2022-10-22T03:44:42;15.87;;;9.87;;
29570;SDS011;16814;52.118;11.436;2022-10-22T03:47:07;15.40;;;9.68;;
29570;SDS011;16814;52.118;11.436;2022-10-22T03:49:33;12.77;;;9.50;;
29570;SDS011;16814;52.118;11.436;2022-10-22T03:52:05;16.10;;;9.90;;
29570;SDS011;16814;52.118;11.436;2022-10-22T03:54:35;15.65;;;9.43;;
29570;SDS011;16814;52.118;11.436;2022-10-22T03:57:02;14.25;;;9.02;;
29570;SDS011;16814;52.118;11.436;2022-10-22T03:59:32;16.63;;;8.30;;
29570;SDS011;16814;52.118;11.436;2022-10-22T04:02:08;16.10;;;8.65;;
29570;SDS011;16814;52.118;11.436;2022-10-22T04:04:35;13.03;;;8.27;;
29570;SDS011;16814;52.118;11.436;2022-10-22T04:07:01;18.17;;;8.80;;
29570;SDS011;16814;52.118;11.436;2022-10-22T04:09:29;10.50;;;7.50;;
29570;SDS011;16814;52.118;11.436;2022-10-22T04:11:56;12.07;;;8.07;;
29570;SDS011;16814;52.118;11.436;2022-10-22T04:14:22;11.27;;;7.80;;
29570;SDS011;16814;52.118;11.436;2022-10-22T04:16:47;13.43;;;8.17;;
29570;SDS011;16814;52.118;11.436;2022-10-22T04:19:13;11.43;;;8.03;;
29570;SDS011;16814;52.118;11.436;2022-10-22T04:21:38;13.10;;;8.15;;
29570;SDS011;16814;52.118;11.436;2022-10-22T04:24:04;9.63;;;7.70;;
29570;SDS011;16814;52.118;11.436;2022-10-22T04:26:29;12.17;;;8.10;;
29570;SDS011;16814;52.118;11.436;2022-10-22T04:28:55;12.35;;;8.02;;
29570;SDS011;16814;52.118;11.436;2022-10-22T04:31:22;12.50;;;8.00;;
29570;SDS011;16814;52.118;11.436;2022-10-22T04:33:56;10.82;;;7.68;;
29570;SDS011;16814;52.118;11.436;2022-10-22T04:36:23;11.20;;;7.70;;
29570;SDS011;16814;52.118;11.436;2022-10-22T04:38:57;12.47;;;7.60;;
29570;SDS011;16814;52.118;11.436;2022-10-22T04:41:25;10.30;;;7.30;;
29570;SDS011;16814;52.118;11.436;2022-10-22T04:43:55;10.73;;;7.57;;
29570;SDS011;16814;52.118;11.436;2022-10-22T04:46:21;9.45;;;7.22;;
29570;SDS011;16814;52.118;11.436;2022-10-22T04:48:49;11.60;;;7.10;;
29570;SDS011;16814;52.118;11.436;2022-10-22T04:51:16;12.35;;;6.75;;
29570;SDS011;16814;52.118;11.436;2022-10-22T04:53:43;12.40;;;7.38;;
29570;SDS011;16814;52.118;11.436;2022-10-22T04:56:13;13.47;;;7.00;;
29570;SDS011;16814;52.118;11.436;2022-10-22T04:58:49;9.88;;;7.00;;
29570;SDS011;16814;52.118;11.436;2022-10-22T05:01:17;14.57;;;7.13;;
29570;SDS011;16814;52.118;11.436;2022-10-22T05:03:44;12.60;;;7.20;;
29570;SDS011;16814;52.118;11.436;2022-10-22T05:06:11;9.63;;;7.28;;
29570;SDS011;16814;52.118;11.436;2022-10-22T05:08:37;10.85;;;7.72;;
29570;SDS011;16814;52.118;11.436;2022-10-22T05:11:16;11.37;;;7.40;;
29570;SDS011;16814;52.118;11.436;2022-10-22T05:13:44;11.57;;;8.00;;
29570;SDS011;16814;52.118;11.436;2022-10-22T05:16:10;11.52;;;8.27;;
29570;SDS011;16814;52.118;11.436;2022-10-22T05:18:37;15.95;;;8.80;;
29570;SDS011;16814;52.118;11.436;2022-10-22T05:21:04;11.98;;;8.05;;
29570;SDS011;16814;52.118;11.436;2022-10-22T05:23:33;13.13;;;8.40;;
29570;SDS011;16814;52.118;11.436;2022-10-22T05:26:02;10.97;;;8.30;;
29570;SDS011;16814;52.118;11.436;2022-10-22T05:28:29;12.13;;;8.23;;
29570;SDS011;16814;52.118;11.436;2022-10-22T05:30:56;13.15;;;7.63;;
29570;SDS011;16814;52.118;11.436;2022-10-22T05:33:23;13.95;;;7.72;;
29570;SDS011;16814;52.118;11.436;2022-10-22T05:35:49;10.48;;;7.60;;
29570;SDS011;16814;52.118;11.436;2022-10-22T05:38:15;10.27;;;7.25;;
29570;SDS011;16814;52.118;11.436;2022-10-22T05:40:41;9.35;;;7.18;;
29570;SDS011;16814;52.118;11.436;2022-10-22T05:43:07;8.70;;;6.70;;
29570;SDS011;16814;52.118;11.436;2022-10-22T05:45:39;8.63;;;6.28;;
29570;SDS011;16814;52.118;11.436;2022-10-22T05:48:06;9.98;;;6.85;;
29570;SDS011;16814;52.118;11.436;2022-10-22T05:50:36;13.23;;;7.10;;
29570;SDS011;16814;52.118;11.436;2022-10-22T05:53:03;10.70;;;6.68;;
29570;SDS011;16814;52.118;11.436;2022-10-22T05:55:29;10.07;;;6.13;;
29570;SDS011;16814;52.118;11.436;2022-10-22T05:57:55;10.48;;;7.40;;
29570;SDS011;16814;52.118;11.436;2022-10-22T06:00:20;11.40;;;6.50;;
29570;SDS011;16814;52.118;11.436;2022-10-22T06:02:49;9.93;;;6.55;;
29570;SDS011;16814;52.118;11.436;2022-10-22T06:05:15;10.77;;;6.38;;
29570;SDS011;16814;52.118;11.436;2022-10-22T06:07:41;11.37;;;6.40;;
29570;SDS011;16814;52.118;11.436;2022-10-22T06:10:08;14.17;;;6.13;;
29570;SDS011;16814;52.118;11.436;2022-10-22T06:12:39;10.43;;;6.03;;
29570;SDS011;16814;52.118;11.436;2022-10-22T06:15:05;12.13;;;6.43;;
29570;SDS011;16814;52.118;11.436;2022-10-22T06:17:31;10.45;;;7.40;;
29570;SDS011;16814;52.118;11.436;2022-10-22T06:19:56;10.53;;;5.93;;
29570;SDS011;16814;52.118;11.436;2022-10-22T06:22:22;9.70;;;6.70;;
29570;SDS011;16814;52.118;11.436;2022-10-22T06:24:47;9.37;;;6.43;;
29570;SDS011;16814;52.118;11.436;2022-10-22T06:27:13;13.07;;;6.43;;
29570;SDS011;16814;52.118;11.436;2022-10-22T06:29:38;8.83;;;6.20;;
29570;SDS011;16814;52.118;11.436;2022-10-22T06:32:04;7.95;;;5.85;;
29570;SDS011;16814;52.118;11.436;2022-10-22T06:34:29;9.07;;;5.95;;
29570;SDS011;16814;52.118;11.436;2022-10-22T06:36:55;9.73;;;5.97;;
29570;SDS011;16814;52.118;11.436;2022-10-22T06:39:20;10.73;;;6.30;;
29570;SDS011;16814;52.118;11.436;2022-10-22T06:41:46;11.63;;;6.70;;
29570;SDS011;16814;52.118;11.436;2022-10-22T06:44:12;8.33;;;5.93;;
29570;SDS011;16814;52.118;11.436;2022-10-22T06:46:39;10.13;;;6.32;;
29570;SDS011;16814;52.118;11.436;2022-10-22T06:49:05;11.10;;;5.83;;
29570;SDS011;16814;52.118;11.436;2022-10-22T06:51:31;9.20;;;6.07;;
29570;SDS011;16814;52.118;11.436;2022-10-22T06:53:57;8.98;;;6.35;;
29570;SDS011;16814;52.118;11.436;2022-10-22T06:56:23;9.38;;;6.88;;
29570;SDS011;16814;52.118;11.436;2022-10-22T06:58:50;11.65;;;6.38;;
29570;SDS011;16814;52.118;11.436;2022-10-22T07:01:18;12.25;;;7.00;;
29570;SDS011;16814;52.118;11.436;2022-10-22T07:03:45;10.50;;;6.38;;
29570;SDS011;16814;52.118;11.436;2022-10-22T07:06:11;12.43;;;7.28;;
29570;SDS011;16814;52.118;11.436;2022-10-22T07:08:38;11.50;;;6.70;;
29570;SDS011;16814;52.118;11.436;2022-10-22T07:11:11;11.13;;;6.35;;
29570;SDS011;16814;52.118;11.436;2022-10-22T07:13:40;10.63;;;6.80;;
29570;SDS011;16814;52.118;11.436;2022-10-22T07:16:06;10.07;;;6.90;;
29570;SDS011;16814;52.118;11.436;2022-10-22T07:18:32;8.88;;;6.30;;
29570;SDS011;16814;52.118;11.436;2022-10-22T07:20:59;10.93;;;6.73;;
29570;SDS011;16814;52.118;11.436;2022-10-22T07:23:25;12.75;;;7.15;;
29570;SDS011;16814;52.118;11.436;2022-10-22T07:25:51;10.27;;;7.22;;
29570;SDS011;16814;52.118;11.436;2022-10-22T07:28:17;14.45;;;7.38;;
29570;SDS011;16814;52.118;11.436;2022-10-22T07:30:42;11.13;;;7.93;;
29570;SDS011;16814;52.118;11.436;2022-10-22T07:33:08;19.10;;;8.43;;
29570;SDS011;16814;52.118;11.436;2022-10-22T07:35:35;13.13;;;8.48;;
29570;SDS011;16814;52.118;11.436;2022-10-22T07:38:04;13.10;;;8.38;;
29570;SDS011;16814;52.118;11.436;2022-10-22T07:40:31;11.15;;;8.07;;
29570;SDS011;16814;52.118;11.436;2022-10-22T07:42:57;10.88;;;7.80;;
29570;SDS011;16814;52.118;11.436;2022-10-22T07:45:23;16.77;;;8.50;;
29570;SDS011;16814;52.118;11.436;2022-10-22T07:47:48;11.83;;;8.60;;
29570;SDS011;16814;52.118;11.436;2022-10-22T07:50:14;12.48;;;8.73;;
29570;SDS011;16814;52.118;11.436;2022-10-22T07:52:41;12.90;;;8.65;;
29570;SDS011;16814;52.118;11.436;2022-10-22T07:55:07;11.60;;;8.38;;
29570;SDS011;16814;52.118;11.436;2022-10-22T07:57:32;12.70;;;8.90;;
29570;SDS011;16814;52.118;11.436;2022-10-22T07:59:58;12.13;;;8.70;;
29570;SDS011;16814;52.118;11.436;2022-10-22T08:02:24;16.95;;;9.10;;
29570;SDS011;16814;52.118;11.436;2022-10-22T08:04:50;16.83;;;9.00;;
29570;SDS011;16814;52.118;11.436;2022-10-22T08:07:16;13.15;;;8.70;;
29570;SDS011;16814;52.118;11.436;2022-10-22T08:09:42;14.43;;;8.35;;
29570;SDS011;16814;52.118;11.436;2022-10-22T08:12:08;15.57;;;8.67;;
29570;SDS011;16814;52.118;11.436;2022-10-22T08:14:33;14.38;;;8.82;;
29570;SDS011;16814;52.118;11.436;2022-10-22T08:16:59;12.50;;;8.13;;
29570;SDS011;16814;52.118;11.436;2022-10-22T08:19:25;12.00;;;8.07;;
29570;SDS011;16814;52.118;11.436;2022-10-22T08:21:52;12.55;;;7.90;;
29570;SDS011;16814;52.118;11.436;2022-10-22T08:24:18;11.75;;;7.88;;
29570;SDS011;16814;52.118;11.436;2022-10-22T08:26:43;13.60;;;7.90;;
29570;SDS011;16814;52.118;11.436;2022-10-22T08:29:10;12.60;;;7.80;;
29570;SDS011;16814;52.118;11.436;2022-10-22T08:31:36;11.05;;;7.00;;
29570;SDS011;16814;52.118;11.436;2022-10-22T08:34:01;12.07;;;7.67;;
29570;SDS011;16814;52.118;11.436;2022-10-22T08:36:29;11.15;;;7.10;;
29570;SDS011;16814;52.118;11.436;2022-10-22T08:38:55;9.83;;;7.07;;
29570;SDS011;16814;52.118;11.436;2022-10-22T08:41:21;10.93;;;7.78;;
29570;SDS011;16814;52.118;11.436;2022-10-22T08:44:00;12.23;;;7.90;;
29570;SDS011;16814;52.118;11.436;2022-10-22T08:46:58;12.30;;;7.57;;
29570;SDS011;16814;52.118;11.436;2022-10-22T08:49:46;11.73;;;8.65;;
29570;SDS011;16814;52.118;11.436;2022-10-22T08:52:13;17.30;;;10.18;;
29570;SDS011;16814;52.118;11.436;2022-10-22T09:00:03;20.87;;;8.50;;
29570;SDS011;16814;52.118;11.436;2022-10-22T09:02:32;10.98;;;7.47;;
29570;SDS011;16814;52.118;11.436;2022-10-22T09:08:06;11.50;;;6.90;;
29570;SDS011;16814;52.118;11.436;2022-10-22T09:10:35;11.80;;;6.53;;
29570;SDS011;16814;52.118;11.436;2022-10-22T09:13:03;7.63;;;5.35;;
29570;SDS011;16814;52.118;11.436;2022-10-22T09:15:29;9.83;;;5.40;;
29570;SDS011;16814;52.118;11.436;2022-10-22T09:20:55;9.60;;;5.25;;
29570;SDS011;16814;52.118;11.436;2022-10-22T09:23:36;9.00;;;5.40;;
29570;SDS011;16814;52.118;11.436;2022-10-22T09:26:14;13.13;;;5.90;;
29570;SDS011;16814;52.118;11.436;2022-10-22T09:28:40;8.82;;;6.00;;
29570;SDS011;16814;52.118;11.436;2022-10-22T09:31:08;9.83;;;6.00;;
29570;SDS011;16814;52.118;11.436;2022-10-22T09:33:36;9.65;;;6.00;;
29570;SDS011;16814;52.118;11.436;2022-10-22T09:36:02;18.13;;;9.50;;
29570;SDS011;16814;52.118;11.436;2022-10-22T09:38:32;47.95;;;20.42;;
29570;SDS011;16814;52.118;11.436;2022-10-22T09:41:02;53.70;;;22.85;;
29570;SDS011;16814;52.118;11.436;2022-10-22T09:43:28;23.43;;;12.43;;
29570;SDS011;16814;52.118;11.436;2022-10-22T09:45:58;7.80;;;4.85;;
29570;SDS011;16814;52.118;11.436;2022-10-22T09:48:27;14.40;;;4.90;;
29570;SDS011;16814;52.118;11.436;2022-10-22T09:51:20;12.13;;;5.63;;
29570;SDS011;16814;52.118;11.436;2022-10-22T09:53:55;15.45;;;6.95;;
29570;SDS011;16814;52.118;11.436;2022-10-22T09:56:26;9.35;;;4.78;;
29570;SDS011;16814;52.118;11.436;2022-10-22T09:59:00;8.00;;;4.00;;
29570;SDS011;16814;52.118;11.436;2022-10-22T10:01:33;6.40;;;3.20;;
29570;SDS011;16814;52.118;11.436;2022-10-22T10:04:03;8.23;;;3.00;;
29570;SDS011;16814;52.118;11.436;2022-10-22T10:06:31;5.78;;;2.40;;
29570;SDS011;16814;52.118;11.436;2022-10-22T10:08:58;5.93;;;1.90;;
29570;SDS011;16814;52.118;11.436;2022-10-22T10:11:35;7.20;;;2.30;;
29570;SDS011;16814;52.118;11.436;2022-10-22T10:22:23;7.85;;;2.40;;
29570;SDS011;16814;52.118;11.436;2022-10-22T10:31:35;5.82;;;1.90;;
29570;SDS011;16814;52.118;11.436;2022-10-22T10:40:02;6.43;;;1.85;;
29570;SDS011;16814;52.118;11.436;2022-10-22T10:45:30;14.48;;;2.20;;
29570;SDS011;16814;52.118;11.436;2022-10-22T10:50:39;6.45;;;1.80;;
29570;SDS011;16814;52.118;11.436;2022-10-22T11:04:54;7.20;;;1.70;;
29570;SDS011;16814;52.118;11.436;2022-10-22T11:07:29;6.75;;;1.90;;
29570;SDS011;16814;52.118;11.436;2022-10-22T11:10:00;7.82;;;2.10;;
29570;SDS011;16814;52.118;11.436;2022-10-22T11:12:33;7.00;;;2.07;;
29570;SDS011;16814;52.118;11.436;2022-10-22T11:15:21;6.57;;;2.10;;
29570;SDS011;16814;52.118;11.436;2022-10-22T11:18:02;7.28;;;2.10;;
29570;SDS011;16814;52.118;11.436;2022-10-22T11:20:52;5.97;;;2.20;;
29570;SDS011;16814;52.118;11.436;2022-10-22T11:23:37;11.77;;;2.40;;
29570;SDS011;16814;52.118;11.436;2022-10-22T11:26:04;5.47;;;2.00;;
29570;SDS011;16814;52.118;11.436;2022-10-22T11:28:40;6.80;;;2.30;;
29570;SDS011;16814;52.118;11.436;2022-10-22T11:31:12;7.17;;;2.60;;
29570;SDS011;16814;52.118;11.436;2022-10-22T11:33:44;8.10;;;2.33;;
29570;SDS011;16814;52.118;11.436;2022-10-22T11:36:17;6.40;;;2.80;;
29570;SDS011;16814;52.118;11.436;2022-10-22T11:38:45;6.10;;;2.38;;
29570;SDS011;16814;52.118;11.436;2022-10-22T11:41:11;9.10;;;2.77;;
29570;SDS011;16814;52.118;11.436;2022-10-22T11:43:55;5.80;;;2.60;;
29570;SDS011;16814;52.118;11.436;2022-10-22T11:49:20;7.57;;;2.90;;
29570;SDS011;16814;52.118;11.436;2022-10-22T11:54:54;6.45;;;2.88;;
29570;SDS011;16814;52.118;11.436;2022-10-22T11:57:25;6.90;;;3.03;;
29570;SDS011;16814;52.118;11.436;2022-10-22T11:59:57;10.07;;;3.90;;
29570;SDS011;16814;52.118;11.436;2022-10-22T12:05:16;9.38;;;2.75;;
29570;SDS011;16814;52.118;11.436;2022-10-22T12:07:50;5.38;;;2.65;;
29570;SDS011;16814;52.118;11.436;2022-10-22T12:10:47;8.32;;;3.05;;
29570;SDS011;16814;52.118;11.436;2022-10-22T12:13:50;7.20;;;2.80;;
29570;SDS011;16814;52.118;11.436;2022-10-22T12:16:27;8.15;;;2.88;;
29570;SDS011;16814;52.118;11.436;2022-10-22T12:19:00;8.20;;;3.07;;
29570;SDS011;16814;52.118;11.436;2022-10-22T12:21:31;8.55;;;3.90;;
29570;SDS011;16814;52.118;11.436;2022-10-22T12:23:58;10.98;;;3.35;;
29570;SDS011;16814;52.118;11.436;2022-10-22T12:26:29;8.32;;;2.95;;
29570;SDS011;16814;52.118;11.436;2022-10-22T12:28:59;9.90;;;3.40;;
29570;SDS011;16814;52.118;11.436;2022-10-22T12:31:26;13.35;;;3.35;;
29570;SDS011;16814;52.118;11.436;2022-10-22T12:33:58;10.15;;;2.85;;
29570;SDS011;16814;52.118;11.436;2022-10-22T12:36:25;7.38;;;2.33;;
29570;SDS011;16814;52.118;11.436;2022-10-22T12:38:52;5.78;;;2.25;;
29570;SDS011;16814;52.118;11.436;2022-10-22T12:41:19;8.23;;;2.20;;
29570;SDS011;16814;52.118;11.436;2022-10-22T12:43:46;11.70;;;2.55;;
29570;SDS011;16814;52.118;11.436;2022-10-22T12:46:12;6.07;;;2.13;;
29570;SDS011;16814;52.118;11.436;2022-10-22T12:48:41;8.27;;;2.75;;
29570;SDS011;16814;52.118;11.436;2022-10-22T12:51:11;10.80;;;3.05;;
29570;SDS011;16814;52.118;11.436;2022-10-22T12:53:51;7.40;;;2.10;;
29570;SDS011;16814;52.118;11.436;2022-10-22T12:56:22;8.07;;;2.35;;
29570;SDS011;16814;52.118;11.436;2022-10-22T12:58:59;14.15;;;2.20;;
29570;SDS011;16814;52.118;11.436;2022-10-22T13:01:28;6.70;;;2.05;;
29570;SDS011;16814;52.118;11.436;2022-10-22T13:09:44;11.60;;;2.00;;
29570;SDS011;16814;52.118;11.436;2022-10-22T13:12:24;6.00;;;2.35;;
29570;SDS011;16814;52.118;11.436;2022-10-22T13:14:52;5.93;;;2.00;;
29570;SDS011;16814;52.118;11.436;2022-10-22T13:17:20;6.90;;;1.98;;
29570;SDS011;16814;52.118;11.436;2022-10-22T13:20:03;5.22;;;2.08;;
29570;SDS011;16814;52.118;11.436;2022-10-22T13:23:32;4.63;;;1.75;;
29570;SDS011;16814;52.118;11.436;2022-10-22T13:25:42;3.97;;;1.60;;
29570;SDS011;16814;52.118;11.436;2022-10-22T13:30:50;5.43;;;1.75;;
29570;SDS011;16814;52.118;11.436;2022-10-22T13:33:22;6.70;;;1.90;;
29570;SDS011;16814;52.118;11.436;2022-10-22T13:35:51;4.15;;;1.98;;
29570;SDS011;16814;52.118;11.436;2022-10-22T13:38:18;4.85;;;1.67;;
29570;SDS011;16814;52.118;11.436;2022-10-22T13:40:45;7.27;;;1.70;;
29570;SDS011;16814;52.118;11.436;2022-10-22T13:43:11;5.47;;;2.13;;
29570;SDS011;16814;52.118;11.436;2022-10-22T13:45:37;4.50;;;2.08;;
29570;SDS011;16814;52.118;11.436;2022-10-22T13:48:02;5.80;;;1.80;;
29570;SDS011;16814;52.118;11.436;2022-10-22T13:50:28;7.20;;;2.20;;
29570;SDS011;16814;52.118;11.436;2022-10-22T13:52:54;5.93;;;2.00;;
29570;SDS011;16814;52.118;11.436;2022-10-22T13:55:28;4.45;;;1.70;;
29570;SDS011;16814;52.118;11.436;2022-10-22T13:57:59;4.85;;;1.70;;
29570;SDS011;16814;52.118;11.436;2022-10-22T14:00:30;4.88;;;1.80;;
29570;SDS011;16814;52.118;11.436;2022-10-22T14:02:56;6.03;;;2.10;;
29570;SDS011;16814;52.118;11.436;2022-10-22T14:05:23;8.87;;;2.70;;
29570;SDS011;16814;52.118;11.436;2022-10-22T14:07:49;5.88;;;2.30;;
29570;SDS011;16814;52.118;11.436;2022-10-22T14:10:19;9.30;;;2.20;;
29570;SDS011;16814;52.118;11.436;2022-10-22T14:12:47;5.30;;;1.90;;
29570;SDS011;16814;52.118;11.436;2022-10-22T14:15:14;7.50;;;1.83;;
29570;SDS011;16814;52.118;11.436;2022-10-22T14:17:43;6.95;;;1.80;;
29570;SDS011;16814;52.118;11.436;2022-10-22T14:20:27;5.65;;;1.80;;
29570;SDS011;16814;52.118;11.436;2022-10-22T14:22:54;6.93;;;1.88;;
29570;SDS011;16814;52.118;11.436;2022-10-22T14:25:21;6.65;;;2.33;;
29570;SDS011;16814;52.118;11.436;2022-10-22T14:27:48;4.95;;;2.03;;
29570;SDS011;16814;52.118;11.436;2022-10-22T14:30:15;4.20;;;1.77;;
29570;SDS011;16814;52.118;11.436;2022-10-22T14:32:46;5.00;;;2.10;;
29570;SDS011;16814;52.118;11.436;2022-10-22T14:35:15;7.60;;;2.13;;
29570;SDS011;16814;52.118;11.436;2022-10-22T14:37:42;8.07;;;2.00;;
29570;SDS011;16814;52.118;11.436;2022-10-22T14:40:08;7.28;;;1.95;;
29570;SDS011;16814;52.118;11.436;2022-10-22T14:42:40;7.80;;;1.80;;
29570;SDS011;16814;52.118;11.436;2022-10-22T14:48:02;22.10;;;2.70;;
29570;SDS011;16814;52.118;11.436;2022-10-22T14:50:27;9.50;;;2.10;;
29570;SDS011;16814;52.118;11.436;2022-10-22T14:52:53;5.93;;;1.85;;
29570;SDS011;16814;52.118;11.436;2022-10-22T14:55:21;5.38;;;1.88;;
29570;SDS011;16814;52.118;11.436;2022-10-22T14:57:46;8.27;;;1.80;;
29570;SDS011;16814;52.118;11.436;2022-10-22T15:00:13;5.47;;;1.70;;
29570;SDS011;16814;52.118;11.436;2022-10-22T15:02:40;5.38;;;1.90;;
29570;SDS011;16814;52.118;11.436;2022-10-22T15:05:06;8.98;;;2.20;;
29570;SDS011;16814;52.118;11.436;2022-10-22T15:07:32;5.07;;;1.60;;
29570;SDS011;16814;52.118;11.436;2022-10-22T15:09:58;7.28;;;1.88;;
29570;SDS011;16814;52.118;11.436;2022-10-22T15:12:23;4.20;;;1.53;;
29570;SDS011;16814;52.118;11.436;2022-10-22T15:14:50;8.90;;;1.80;;
29570;SDS011;16814;52.118;11.436;2022-10-22T15:17:16;9.55;;;1.77;;
29570;SDS011;16814;52.118;11.436;2022-10-22T15:19:43;10.43;;;1.80;;
29570;SDS011;16814;52.118;11.436;2022-10-22T15:22:18;6.50;;;1.77;;
29570;SDS011;16814;52.118;11.436;2022-10-22T15:24:43;6.67;;;1.63;;
29570;SDS011;16814;52.118;11.436;2022-10-22T15:27:12;9.57;;;1.92;;
29570;SDS011;16814;52.118;11.436;2022-10-22T15:29:38;7.63;;;1.70;;
29570;SDS011;16814;52.118;11.436;2022-10-22T15:32:04;4.72;;;1.42;;
29570;SDS011;16814;52.118;11.436;2022-10-22T15:34:32;6.82;;;1.70;;
29570;SDS011;16814;52.118;11.436;2022-10-22T15:37:00;6.95;;;1.63;;
29570;SDS011;16814;52.118;11.436;2022-10-22T15:39:28;6.18;;;1.50;;
29570;SDS011;16814;52.118;11.436;2022-10-22T15:41:54;6.60;;;1.70;;
29570;SDS011;16814;52.118;11.436;2022-10-22T15:44:25;6.25;;;1.70;;
29570;SDS011;16814;52.118;11.436;2022-10-22T15:46:51;4.80;;;1.83;;
29570;SDS011;16814;52.118;11.436;2022-10-22T15:49:21;7.35;;;1.90;;
29570;SDS011;16814;52.118;11.436;2022-10-22T15:51:47;5.68;;;1.80;;
29570;SDS011;16814;52.118;11.436;2022-10-22T15:54:13;4.93;;;1.77;;
29570;SDS011;16814;52.118;11.436;2022-10-22T15:56:42;4.65;;;1.60;;
29570;SDS011;16814;52.118;11.436;2022-10-22T15:59:09;5.30;;;1.52;;
29570;SDS011;16814;52.118;11.436;2022-10-22T16:01:35;8.60;;;1.70;;
29570;SDS011;16814;52.118;11.436;2022-10-22T16:04:00;5.87;;;1.83;;